Time;durP1;ratioP1;P1;durP2;ratioP2;P2;SDS_P1;SDS_P2;PMS_P1;PMS_P2;Temp;Humidity;BMP_temperature;BMP_pressure;BME280_temperature;BME280_humidity;BME280_pressure;Samples;Min_cycle;Max_cycle;Signal;HPM_P1;HPM_P2
2022/09/09 00:01:53;;;;;;;9.32;8.43;;;;;;;18.82;64.56;95125.03;5056752;28;20205;-68
2022/09/09 00:04:27;;;;;;;8.98;8.18;;;;;;;18.77;64.60;95115.06;5056178;28;20228;-69
2022/09/09 00:07:03;;;;;;;8.60;7.80;;;;;;;18.74;64.50;95116.69;5056197;28;20295;-69
2022/09/09 00:09:37;;;;;;;8.98;8.13;;;;;;;18.70;64.92;95115.88;5056309;28;20186;-68
2022/09/09 00:12:11;;;;;;;8.55;7.75;;;;;;;18.62;64.73;95116.28;5056086;28;20206;-68
2022/09/09 00:14:43;;;;;;;9.02;8.25;;;;;;;18.55;65.27;95114.31;5056733;28;20549;-68
2022/09/09 00:17:17;;;;;;;9.05;8.23;;;;;;;18.55;65.06;95119.09;5056134;28;20205;-68
2022/09/09 00:19:50;;;;;;;8.95;8.25;;;;;;;18.57;65.30;95114.72;5056056;28;20197;-69
2022/09/09 00:22:18;;;;;;;9.25;8.45;;;;;;;18.56;65.06;95103.94;5056476;28;20244;-69
2022/09/09 00:24:46;;;;;;;9.68;8.48;;;;;;;18.54;65.42;95093.16;5056079;28;20247;-69
2022/09/09 00:27:20;;;;;;;9.55;8.65;;;;;;;18.55;65.34;95097.53;5056281;28;20637;-69
2022/09/09 00:29:54;;;;;;;9.40;8.60;;;;;;;18.56;65.12;95090.00;5089289;28;20207;-69
2022/09/09 00:32:23;;;;;;;9.30;8.43;;;;;;;18.50;65.42;95090.38;5055921;28;20194;-69
2022/09/09 00:34:53;;;;;;;9.63;8.48;;;;;;;18.43;65.54;95087.63;5055641;28;20189;-69
2022/09/09 00:37:22;;;;;;;9.40;8.45;;;;;;;18.41;65.63;95078.84;5055825;28;20193;-69
2022/09/09 00:39:49;;;;;;;8.82;8.02;;;;;;;18.38;65.75;95076.88;5055617;28;20609;-69
2022/09/09 00:42:18;;;;;;;8.75;7.93;;;;;;;18.36;65.77;95078.47;5055476;28;20621;-69
2022/09/09 00:44:54;;;;;;;9.40;8.60;;;;;;;18.37;66.25;95080.03;5055495;28;20214;-69
2022/09/09 00:47:56;;;;;;;9.57;8.68;;;;;;;18.32;66.46;95083.25;5056089;28;20651;-69
2022/09/09 00:50:40;;;;;;;9.10;8.30;;;;;;;18.33;66.44;95085.63;5054829;28;20649;-69
2022/09/09 00:53:17;;;;;;;9.45;8.55;;;;;;;18.36;66.51;95078.47;5055680;28;20185;-69
2022/09/09 00:55:47;;;;;;;8.88;8.18;;;;;;;18.38;66.42;95082.44;5055266;28;20262;-69
2022/09/09 00:58:14;;;;;;;9.40;8.48;;;;;;;18.38;66.48;95081.66;5055302;28;20202;-69
2022/09/09 01:00:44;;;;;;;9.63;8.73;;;;;;;18.32;66.14;95086.06;5055526;28;20193;-69
2022/09/09 01:03:24;;;;;;;9.50;8.60;;;;;;;18.28;66.23;95089.66;5054814;28;20225;-69
2022/09/09 01:05:58;;;;;;;8.73;7.97;;;;;;;18.25;66.33;95082.06;5088513;28;20208;-69
2022/09/09 01:08:39;;;;;;;9.23;8.40;;;;;;;18.15;66.59;95085.69;5055337;28;20679;-69
2022/09/09 01:11:12;;;;;;;9.57;8.77;;;;;;;18.14;66.55;95089.66;5055424;28;20247;-70
2022/09/09 01:13:39;;;;;;;9.90;8.95;;;;;;;18.14;66.48;95086.88;5055189;28;20193;-69
2022/09/09 01:16:09;;;;;;;9.63;8.73;;;;;;;18.12;66.76;95091.25;5054915;28;20197;-69
2022/09/09 01:18:40;;;;;;;9.25;8.45;;;;;;;18.13;66.57;95088.09;5054722;28;20205;-70
2022/09/09 01:21:14;;;;;;;9.35;8.55;;;;;;;18.09;66.40;95078.94;5054891;28;20201;-69
2022/09/09 01:24:06;;;;;;;10.00;8.82;;;;;;;18.08;66.65;95079.31;5054835;28;20225;-69
2022/09/09 01:26:35;;;;;;;8.38;7.68;;;;;;;18.05;66.69;95069.75;5052118;28;20210;-69
2022/09/09 01:29:02;;;;;;;9.00;8.20;;;;;;;18.06;66.58;95079.72;5088251;28;20212;-69
2022/09/09 01:31:32;;;;;;;9.20;8.35;;;;;;;18.07;66.48;95091.69;5054779;28;20198;-69
2022/09/09 01:33:59;;;;;;;9.30;8.40;;;;;;;18.03;67.00;95084.09;5054491;28;20212;-69
2022/09/09 01:36:31;;;;;;;8.60;7.90;;;;;;;18.05;66.84;95097.66;5055046;28;20206;-69
2022/09/09 01:38:57;;;;;;;9.10;8.30;;;;;;;18.08;66.66;95091.25;5054044;28;20198;-69
2022/09/09 01:41:24;;;;;;;9.13;8.32;;;;;;;18.06;66.17;95093.69;5054228;28;20213;-69
2022/09/09 01:43:54;;;;;;;9.30;8.48;;;;;;;18.06;66.47;95093.69;5054420;28;20684;-70
2022/09/09 01:46:22;;;;;;;8.93;8.23;;;;;;;18.08;65.96;95099.63;5054634;28;20194;-69
2022/09/09 01:48:50;;;;;;;8.93;7.93;;;;;;;18.13;66.17;95104.03;5054659;28;20202;-70
2022/09/09 01:51:17;;;;;;;8.93;8.18;;;;;;;18.12;65.87;95096.84;5054693;28;20533;-69
2022/09/09 01:53:44;;;;;;;9.13;8.20;;;;;;;18.12;66.40;95100.47;5054341;28;20209;-69
2022/09/09 01:56:19;;;;;;;8.82;8.13;;;;;;;18.08;66.69;95108.00;5053944;28;20208;-69
2022/09/09 01:58:57;;;;;;;9.65;8.57;;;;;;;18.09;66.62;95097.66;5054115;28;20200;-69
2022/09/09 02:01:35;;;;;;;9.57;8.68;;;;;;;18.01;66.39;95094.06;5054487;28;20284;-68
2022/09/09 02:04:04;;;;;;;9.13;8.20;;;;;;;17.92;66.33;95102.06;5054156;28;20225;-70
2022/09/09 02:06:35;;;;;;;9.25;8.45;;;;;;;17.84;66.69;95095.69;5053937;28;20186;-71
2022/09/09 02:09:05;;;;;;;10.02;9.10;;;;;;;17.79;66.94;95105.25;5054330;28;20213;-71
2022/09/09 02:11:32;;;;;;;9.15;8.38;;;;;;;17.75;67.03;95093.28;5054028;28;20198;-71
2022/09/09 02:14:02;;;;;;;9.55;8.57;;;;;;;17.73;67.05;95084.50;5054004;28;20204;-71
2022/09/09 02:16:34;;;;;;;8.57;7.78;;;;;;;17.74;66.75;95082.50;5054148;28;20672;-69
2022/09/09 02:19:03;;;;;;;8.82;8.13;;;;;;;17.76;66.90;95088.53;5055470;28;20189;-69
2022/09/09 02:21:30;;;;;;;9.82;8.32;;;;;;;17.73;66.86;95092.88;5054531;28;20201;-69
2022/09/09 02:24:00;;;;;;;9.80;8.93;;;;;;;17.73;67.60;95086.50;5054855;28;20553;-68
2022/09/09 02:26:27;;;;;;;9.35;8.52;;;;;;;17.71;67.16;95095.25;5054065;28;20190;-68
2022/09/09 02:28:57;;;;;;;8.82;8.10;;;;;;;17.69;67.01;95102.44;5053983;28;20248;-68
2022/09/09 02:31:26;;;;;;;8.50;7.70;;;;;;;17.68;67.44;95098.81;5054497;28;20232;-68
2022/09/09 02:33:55;;;;;;;8.23;7.53;;;;;;;17.70;67.09;95101.25;5053957;28;20247;-71
2022/09/09 02:39:09;;;;;;;9.85;8.95;;;;;;;17.62;66.99;95106.03;5053598;28;20292;-71
2022/09/09 02:41:38;;;;;;;10.20;9.30;;;;;;;17.60;66.95;95116.75;5054133;28;20190;-71
2022/09/09 02:44:06;;;;;;;10.90;9.90;;;;;;;17.63;66.74;95115.19;5053885;28;20222;-71
2022/09/09 02:46:55;;;;;;;10.30;9.38;;;;;;;17.64;66.40;95111.19;5054506;28;20602;-71
2022/09/09 02:49:29;;;;;;;10.10;9.23;;;;;;;17.65;66.85;95104.44;5054563;28;20311;-71
2022/09/09 02:52:02;;;;;;;9.77;8.77;;;;;;;17.68;66.20;95107.19;5056456;28;20194;-71
2022/09/09 02:54:31;;;;;;;9.93;8.93;;;;;;;17.69;65.87;95105.22;5058006;28;20193;-71
2022/09/09 02:57:03;;;;;;;9.52;8.60;;;;;;;17.66;66.37;95100.44;5058036;28;20205;-71
2022/09/09 02:59:30;;;;;;;9.32;8.52;;;;;;;17.65;66.70;95112.81;5057646;28;20193;-71
2022/09/09 03:01:58;;;;;;;9.25;8.45;;;;;;;17.60;66.81;95110.38;5057672;28;20204;-69
2022/09/09 03:04:25;;;;;;;9.00;8.30;;;;;;;17.56;66.79;95108.38;5057194;28;20240;-69
2022/09/09 03:06:52;;;;;;;9.60;8.80;;;;;;;17.54;66.63;95112.78;5057609;28;20271;-68
2022/09/09 03:09:18;;;;;;;10.85;9.95;;;;;;;17.49;67.18;95110.38;5057992;28;20197;-68
2022/09/09 03:11:45;;;;;;;9.50;8.57;;;;;;;17.44;66.71;95108.00;5057455;28;20213;-68
2022/09/09 03:14:12;;;;;;;8.95;8.25;;;;;;;17.37;66.69;95107.97;5057424;28;20200;-68
2022/09/09 03:16:39;;;;;;;8.52;7.82;;;;;;;17.31;67.10;95110.34;5058147;28;20209;-69
2022/09/09 03:19:07;;;;;;;9.27;8.38;;;;;;;17.29;67.13;95112.75;5057045;28;20198;-69
2022/09/09 03:21:33;;;;;;;9.48;8.57;;;;;;;17.27;67.27;95112.34;5057480;28;20216;-69
2022/09/09 03:24:03;;;;;;;9.63;8.70;;;;;;;17.26;67.15;95096.81;5057852;28;20213;-69
2022/09/09 03:26:30;;;;;;;9.20;8.40;;;;;;;17.28;67.59;95102.78;5091288;28;20198;-69
2022/09/09 03:28:57;;;;;;;9.32;8.45;;;;;;;17.30;67.55;95100.41;5056831;28;20201;-70
2022/09/09 03:31:24;;;;;;;9.63;8.73;;;;;;;17.32;67.28;95098.03;5057566;28;20244;-69
2022/09/09 03:33:50;;;;;;;9.13;8.20;;;;;;;17.32;67.63;95104.41;5056955;28;20648;-69
2022/09/09 03:36:18;;;;;;;9.23;8.43;;;;;;;17.26;67.53;95097.59;5090718;28;20212;-69
2022/09/09 03:38:45;;;;;;;8.77;8.07;;;;;;;17.21;67.85;95091.59;5057646;28;20194;-69
2022/09/09 03:41:12;;;;;;;9.13;8.32;;;;;;;17.14;67.50;95097.16;5056971;28;20197;-69
2022/09/09 03:43:39;;;;;;;9.38;8.45;;;;;;;17.12;68.15;95096.78;5056942;28;20622;-69
2022/09/09 03:46:06;;;;;;;9.38;8.60;;;;;;;17.13;68.04;95099.16;5056933;28;20634;-69
2022/09/09 03:48:33;;;;;;;9.68;8.73;;;;;;;17.13;68.13;95110.31;5056993;28;20198;-70
2022/09/09 03:51:01;;;;;;;8.95;8.05;;;;;;;17.13;68.19;95113.09;5056548;28;20200;-70
2022/09/09 03:53:29;;;;;;;10.88;9.80;;;;;;;17.09;67.69;95112.28;5056195;28;20630;-70
2022/09/09 03:55:59;;;;;;;9.55;8.65;;;;;;;17.04;68.29;95116.25;5056593;28;20194;-70
2022/09/09 03:58:26;;;;;;;9.90;8.90;;;;;;;17.05;68.27;95100.34;5056389;28;20247;-70
2022/09/09 04:00:57;;;;;;;10.57;9.00;;;;;;;17.07;68.26;95109.13;5056502;28;20209;-70
2022/09/09 04:03:25;;;;;;;9.27;8.48;;;;;;;17.03;68.09;95119.44;5055834;28;20205;-70
2022/09/09 04:05:52;;;;;;;10.15;9.20;;;;;;;16.99;68.38;95122.22;5055968;28;20247;-70
2022/09/09 04:08:19;;;;;;;11.13;9.75;;;;;;;17.03;68.42;95113.84;5056128;28;20225;-70
2022/09/09 04:10:48;;;;;;;11.35;9.45;;;;;;;17.06;68.60;95116.66;5056756;28;20618;-69
2022/09/09 04:13:16;;;;;;;10.15;9.15;;;;;;;17.09;68.51;95115.06;5056235;28;20220;-70
2022/09/09 04:15:43;;;;;;;10.23;9.30;;;;;;;17.10;68.55;95116.66;5056423;28;20202;-70
2022/09/09 04:18:09;;;;;;;10.93;9.73;;;;;;;17.06;68.35;95116.66;5055873;28;20198;-70
2022/09/09 04:20:36;;;;;;;9.82;8.82;;;;;;;17.03;68.38;95111.06;5056159;28;20200;-70
2022/09/09 04:23:03;;;;;;;14.15;8.95;;;;;;;16.98;68.73;95115.03;5056056;28;20202;-70
2022/09/09 04:25:30;;;;;;;11.95;10.20;;;;;;;16.97;69.08;95107.09;5055902;28;20263;-70
2022/09/09 04:27:59;;;;;;;10.73;9.63;;;;;;;17.00;69.12;95118.25;5055962;28;20198;-70
2022/09/09 04:30:27;;;;;;;10.15;9.25;;;;;;;17.01;69.07;95127.41;5055819;28;20198;-69
2022/09/09 04:32:53;;;;;;;10.57;9.00;;;;;;;16.98;69.07;95126.19;5056162;28;20225;-70
2022/09/09 04:35:20;;;;;;;10.75;9.40;;;;;;;17.01;69.13;95130.19;5055684;28;20193;-70
2022/09/09 04:37:48;;;;;;;13.43;10.57;;;;;;;17.01;68.94;95119.84;5055562;28;20194;-70
2022/09/09 04:40:15;;;;;;;17.67;10.15;;;;;;;17.02;68.92;95123.41;5055794;28;20201;-69
2022/09/09 04:42:43;;;;;;;12.38;10.80;;;;;;;17.04;69.14;95124.63;5056745;28;20181;-69
2022/09/09 04:45:13;;;;;;;11.52;10.35;;;;;;;17.05;69.32;95126.22;5055980;28;20288;-68
2022/09/09 04:47:40;;;;;;;11.70;10.48;;;;;;;17.09;68.98;95120.66;5056458;28;20196;-70
2022/09/09 04:50:08;;;;;;;11.43;10.07;;;;;;;17.12;69.42;95119.88;5055319;28;20289;-69
2022/09/09 04:52:36;;;;;;;10.73;9.73;;;;;;;17.16;69.35;95103.94;5056515;28;20190;-68
2022/09/09 04:55:03;;;;;;;10.93;9.82;;;;;;;17.20;69.33;95101.97;5055315;28;20190;-70
2022/09/09 04:57:32;;;;;;;11.38;10.18;;;;;;;17.19;69.41;95108.75;5055670;28;20190;-69
2022/09/09 04:59:59;;;;;;;15.55;10.25;;;;;;;17.21;69.83;95111.13;5055579;28;20332;-69
2022/09/09 05:02:28;;;;;;;13.60;11.00;;;;;;;17.23;69.70;95109.53;5055830;28;20205;-69
2022/09/09 05:04:55;;;;;;;11.60;10.40;;;;;;;17.27;69.59;95098.41;5055672;28;20228;-69
2022/09/09 05:07:21;;;;;;;13.60;11.65;;;;;;;17.30;69.66;95089.25;5054974;28;20230;-69
2022/09/09 05:09:49;;;;;;;13.73;11.70;;;;;;;17.32;69.84;95081.31;5054866;28;20553;-69
2022/09/09 05:12:16;;;;;;;15.82;11.07;;;;;;;17.37;69.90;95096.84;5054946;28;20202;-69
2022/09/09 05:14:43;;;;;;;14.20;10.68;;;;;;;17.44;70.19;95099.63;5054600;28;20204;-69
2022/09/09 05:17:11;;;;;;;12.45;10.57;;;;;;;17.52;70.01;95102.03;5055851;28;20220;-69
2022/09/09 05:19:39;;;;;;;10.80;9.73;;;;;;;17.58;69.74;95096.06;5054697;28;20545;-69
2022/09/09 05:22:07;;;;;;;12.85;10.52;;;;;;;17.62;69.53;95088.50;5055412;28;20206;-69
2022/09/09 05:24:34;;;;;;;12.55;11.25;;;;;;;17.65;68.69;95085.72;5055101;28;20186;-69
2022/09/09 05:27:02;;;;;;;11.70;10.70;;;;;;;17.67;68.49;95093.66;5055758;28;20189;-69
2022/09/09 05:29:29;;;;;;;11.98;10.85;;;;;;;17.71;68.97;95098.03;5054842;28;20357;-69
2022/09/09 05:31:55;;;;;;;11.98;10.80;;;;;;;17.74;69.02;95096.44;5055318;28;20197;-69
2022/09/09 05:34:22;;;;;;;13.07;10.48;;;;;;;17.81;68.62;95102.06;5055311;28;20186;-69
2022/09/09 05:36:51;;;;;;;13.35;11.63;;;;;;;17.87;68.43;95094.09;5055593;28;20186;-69
2022/09/09 05:39:18;;;;;;;14.70;12.63;;;;;;;17.93;68.60;95100.84;5054844;28;20194;-69
2022/09/09 05:41:45;;;;;;;13.18;11.88;;;;;;;17.96;68.60;95100.84;5055570;28;20338;-69
2022/09/09 05:44:13;;;;;;;14.35;12.95;;;;;;;17.97;68.94;95098.84;5055412;28;20178;-69
2022/09/09 05:46:40;;;;;;;15.43;14.02;;;;;;;18.00;68.70;95106.44;5054557;28;20220;-69
2022/09/09 05:49:08;;;;;;;14.85;13.40;;;;;;;18.03;68.33;95114.81;5054945;28;20201;-69
2022/09/09 05:51:35;;;;;;;14.75;13.35;;;;;;;18.09;68.23;95101.25;5054376;28;20190;-69
2022/09/09 05:54:03;;;;;;;15.40;14.00;;;;;;;18.11;67.77;95106.41;5054448;28;20209;-69
2022/09/09 05:56:30;;;;;;;15.95;14.38;;;;;;;18.14;67.27;95109.22;5054692;28;20198;-69
2022/09/09 05:58:57;;;;;;;17.85;16.15;;;;;;;18.16;66.87;95104.03;5054391;28;20194;-69
2022/09/09 06:01:26;;;;;;;16.58;14.98;;;;;;;18.17;66.99;95107.63;5054482;28;20197;-69
2022/09/09 06:03:53;;;;;;;16.98;15.30;;;;;;;18.17;67.20;95114.00;5054091;28;20198;-69
2022/09/09 06:06:22;;;;;;;17.98;16.30;;;;;;;18.18;67.19;95128.75;5053949;28;20217;-69
2022/09/09 06:08:50;;;;;;;16.80;15.10;;;;;;;18.19;66.79;95114.41;5053739;28;20229;-70
2022/09/09 06:11:20;;;;;;;17.38;15.55;;;;;;;18.24;66.66;95116.78;5054099;28;20202;-71
2022/09/09 06:13:47;;;;;;;17.10;15.45;;;;;;;18.27;66.82;95110.41;5054225;28;20209;-69
2022/09/09 06:16:16;;;;;;;15.48;13.88;;;;;;;18.29;66.61;95118.34;5053747;28;20210;-69
2022/09/09 06:18:43;;;;;;;15.57;14.02;;;;;;;18.32;66.81;95116.75;5054571;28;20202;-69
2022/09/09 06:21:14;;;;;;;15.15;13.70;;;;;;;18.36;66.28;95109.19;5054172;28;20204;-69
2022/09/09 06:23:41;;;;;;;14.18;12.80;;;;;;;18.39;65.70;95106.38;5053838;28;20190;-68
2022/09/09 06:26:11;;;;;;;13.80;12.55;;;;;;;18.43;65.42;95114.75;5056057;28;20217;-69
2022/09/09 06:28:39;;;;;;;14.10;12.63;;;;;;;18.47;65.35;95112.72;5058440;28;20210;-69
2022/09/09 06:31:12;;;;;;;13.25;12.05;;;;;;;18.50;65.38;95106.34;5058463;28;20185;-69
2022/09/09 06:33:40;;;;;;;14.05;12.82;;;;;;;18.53;65.52;95109.13;5058926;28;20182;-69
2022/09/09 06:36:08;;;;;;;13.02;11.93;;;;;;;18.59;65.68;95106.72;5057822;28;20251;-69
2022/09/09 06:38:35;;;;;;;13.68;12.38;;;;;;;18.65;65.37;95101.50;5058068;28;20204;-70
2022/09/09 06:41:02;;;;;;;14.13;12.63;;;;;;;18.70;65.06;95099.13;5057718;28;20204;-72
2022/09/09 06:43:29;;;;;;;14.32;13.00;;;;;;;18.76;65.06;95099.50;5057912;28;20205;-70
2022/09/09 06:45:59;;;;;;;15.30;13.85;;;;;;;18.81;65.20;95098.28;5057851;28;20221;-69
2022/09/09 06:48:27;;;;;;;16.80;15.10;;;;;;;18.85;64.59;95105.47;5057521;28;20217;-70
2022/09/09 06:51:02;;;;;;;13.98;12.73;;;;;;;18.89;64.39;95108.25;5058065;28;20200;-69
2022/09/09 06:53:29;;;;;;;11.70;10.70;;;;;;;18.97;64.25;95118.19;5057447;28;20193;-68
2022/09/09 06:55:56;;;;;;;12.90;11.70;;;;;;;19.01;63.65;95118.97;5057817;28;20209;-70
2022/09/09 06:58:23;;;;;;;13.07;11.98;;;;;;;19.04;63.46;95120.94;5058632;28;20186;-70
2022/09/09 07:00:50;;;;;;;14.50;13.30;;;;;;;19.01;63.27;95124.56;5057743;28;20205;-70
2022/09/09 07:03:18;;;;;;;13.40;12.18;;;;;;;19.05;63.28;95121.75;5057763;28;20194;-69
2022/09/09 07:05:45;;;;;;;12.23;11.07;;;;;;;19.10;63.35;95118.50;5057398;28;20229;-70
2022/09/09 07:08:12;;;;;;;14.95;12.93;;;;;;;19.16;63.53;95120.47;5057718;28;20259;-67
2022/09/09 07:10:38;;;;;;;13.43;12.13;;;;;;;19.22;63.33;95118.06;5057721;28;20296;-67
2022/09/09 07:13:07;;;;;;;14.10;12.43;;;;;;;19.23;62.81;95112.06;5057538;28;20205;-67
2022/09/09 07:15:34;;;;;;;13.60;12.07;;;;;;;19.24;62.52;95108.06;5057311;28;20212;-69
2022/09/09 07:18:02;;;;;;;12.98;11.82;;;;;;;19.26;63.00;95104.88;5057373;28;20197;-69
2022/09/09 07:20:33;;;;;;;16.67;13.48;;;;;;;19.32;62.86;95108.81;5058022;28;20202;-69
2022/09/09 07:22:59;;;;;;;15.25;13.75;;;;;;;19.37;62.91;95107.59;5057323;28;20198;-69
2022/09/09 07:25:28;;;;;;;13.27;11.93;;;;;;;19.38;62.33;95098.78;5056863;28;20570;-69
2022/09/09 07:27:57;;;;;;;13.40;12.20;;;;;;;19.42;62.59;95093.97;5058013;28;20235;-69
2022/09/09 07:30:24;;;;;;;13.27;11.88;;;;;;;19.47;62.32;95101.16;5057167;28;20267;-69
2022/09/09 07:32:52;;;;;;;11.20;10.20;;;;;;;19.51;62.06;95096.31;5057327;28;20198;-69
2022/09/09 07:35:19;;;;;;;11.85;10.85;;;;;;;19.56;62.03;95095.88;5057057;28;20533;-69
2022/09/09 07:37:47;;;;;;;11.98;10.88;;;;;;;19.59;61.62;95092.25;5056267;28;20510;-69
2022/09/09 07:40:14;;;;;;;12.88;11.68;;;;;;;19.65;61.72;95101.84;5056475;28;20186;-69
2022/09/09 07:42:40;;;;;;;13.00;11.63;;;;;;;19.73;61.97;95099.78;5056912;28;20205;-69
2022/09/09 07:45:07;;;;;;;13.40;12.00;;;;;;;19.83;61.37;95101.72;5056362;28;20198;-69
2022/09/09 07:47:35;;;;;;;10.95;9.90;;;;;;;19.93;61.74;95100.81;5056324;28;20194;-69
2022/09/09 07:50:02;;;;;;;13.10;11.63;;;;;;;20.05;61.48;95098.72;5057278;28;20211;-70
2022/09/09 07:52:28;;;;;;;13.38;12.18;;;;;;;20.14;60.66;95102.63;5056663;28;20197;-69
2022/09/09 07:54:57;;;;;;;13.60;12.38;;;;;;;20.23;60.99;95101.38;5057131;28;20199;-69
2022/09/09 07:57:24;;;;;;;13.80;11.88;;;;;;;20.30;60.49;95107.69;5056262;28;20213;-69
2022/09/09 07:59:52;;;;;;;11.55;10.48;;;;;;;20.35;60.58;95104.44;5056202;28;20193;-69
2022/09/09 08:02:18;;;;;;;11.35;10.07;;;;;;;20.40;60.60;95094.78;5056312;28;20202;-69
2022/09/09 08:04:46;;;;;;;9.35;8.55;;;;;;;20.49;60.57;95099.91;5056617;28;20201;-70
2022/09/09 08:07:13;;;;;;;9.68;8.77;;;;;;;20.59;60.51;95107.44;5056174;28;20240;-69
2022/09/09 08:09:39;;;;;;;9.95;9.05;;;;;;;20.70;59.99;95101.69;5056704;28;20192;-70
2022/09/09 08:12:08;;;;;;;10.95;9.95;;;;;;;20.75;59.69;95104.84;5056183;28;20202;-69
2022/09/09 08:14:35;;;;;;;11.50;10.40;;;;;;;20.85;59.70;95103.13;5056222;28;20201;-69
2022/09/09 08:17:02;;;;;;;10.40;9.40;;;;;;;20.94;59.27;95099.81;5056337;28;20190;-69
2022/09/09 08:19:29;;;;;;;10.43;9.40;;;;;;;21.02;59.08;95102.09;5056122;28;20280;-68
2022/09/09 08:21:56;;;;;;;10.10;9.10;;;;;;;21.09;58.68;95102.00;5056714;28;20558;-69
2022/09/09 08:24:23;;;;;;;9.85;8.95;;;;;;;21.14;58.09;95103.56;5056915;28;20201;-69
2022/09/09 08:26:50;;;;;;;9.27;8.50;;;;;;;21.19;57.93;95097.47;5055863;28;20232;-69
2022/09/09 08:29:18;;;;;;;10.35;9.35;;;;;;;21.21;57.55;95091.47;5056266;28;20543;-69
2022/09/09 08:31:47;;;;;;;10.63;9.60;;;;;;;21.22;57.50;95091.03;5055919;28;20557;-69
2022/09/09 08:34:14;;;;;;;10.55;9.55;;;;;;;21.25;57.97;95095.00;5089321;28;20221;-69
2022/09/09 08:36:43;;;;;;;10.20;9.20;;;;;;;21.24;57.16;95087.78;5055873;28;20202;-69
2022/09/09 08:39:10;;;;;;;9.52;8.63;;;;;;;21.22;57.30;95091.03;5056170;28;20186;-69
2022/09/09 08:42:06;;;;;;;10.43;9.00;;;;;;;21.24;57.37;95085.81;5055450;28;20190;-70
2022/09/09 08:44:42;;;;;;;9.55;8.65;;;;;;;21.33;57.08;95088.91;5055555;28;20292;-69
2022/09/09 08:47:15;;;;;;;10.02;8.43;;;;;;;21.48;56.99;95081.06;5056142;28;20205;-69
2022/09/09 08:49:58;;;;;;;8.55;7.75;;;;;;;21.56;56.28;95079.72;5088147;28;20200;-70
2022/09/09 08:52:29;;;;;;;10.73;8.80;;;;;;;21.69;56.31;95084.78;5056347;28;20198;-69
2022/09/09 08:54:58;;;;;;;10.73;9.60;;;;;;;21.82;56.56;95080.13;5055504;28;20222;-69
2022/09/09 08:57:28;;;;;;;9.55;8.77;;;;;;;21.90;55.81;95084.44;5054955;28;20522;-69
2022/09/09 08:59:57;;;;;;;9.85;8.63;;;;;;;21.94;55.96;95079.56;5055295;28;20190;-69
2022/09/09 09:02:27;;;;;;;9.82;8.82;;;;;;;22.04;56.48;95075.78;5055119;28;20622;-69
2022/09/09 09:05:09;;;;;;;10.63;9.63;;;;;;;22.15;55.92;95081.25;5055452;28;20576;-69
2022/09/09 09:07:45;;;;;;;9.43;8.63;;;;;;;22.23;55.47;95084.72;5054654;28;20238;-69
2022/09/09 09:10:18;;;;;;;9.88;8.98;;;;;;;22.30;55.18;95081.78;5055068;28;20198;-70
2022/09/09 09:12:47;;;;;;;9.50;8.63;;;;;;;22.37;55.21;95080.84;5054995;28;20207;-70
2022/09/09 09:15:19;;;;;;;10.57;9.40;;;;;;;22.44;54.99;95073.09;5054797;28;20622;-70
2022/09/09 09:17:46;;;;;;;10.35;9.40;;;;;;;22.35;54.37;95078.47;5056043;28;20221;-70
2022/09/09 09:20:14;;;;;;;12.48;10.05;;;;;;;22.28;54.55;95075.78;5054962;28;20197;-70
2022/09/09 09:22:48;;;;;;;10.40;9.18;;;;;;;22.26;54.82;95075.41;5055276;28;20193;-69
2022/09/09 09:25:18;;;;;;;11.80;10.38;;;;;;;22.24;55.36;95075.06;5055067;28;20197;-69
2022/09/09 09:27:51;;;;;;;11.18;9.38;;;;;;;22.20;56.36;95075.13;5088405;28;20222;-69
2022/09/09 09:30:21;;;;;;;9.15;8.27;;;;;;;22.21;55.92;95087.16;5055512;28;20185;-70
2022/09/09 09:32:54;;;;;;;9.85;9.00;;;;;;;22.31;55.25;95077.75;5055024;28;20205;-70
2022/09/09 09:35:21;;;;;;;9.95;9.00;;;;;;;22.43;54.50;95071.47;5055062;28;20208;-70
2022/09/09 09:37:49;;;;;;;9.40;8.50;;;;;;;22.56;55.46;95068.84;5054705;28;20202;-69
2022/09/09 09:40:17;;;;;;;9.93;9.07;;;;;;;22.67;53.39;95063.81;5055539;28;20190;-69
2022/09/09 09:42:53;;;;;;;10.07;9.02;;;;;;;22.62;54.02;95058.66;5054714;28;20193;-69
2022/09/09 09:45:29;;;;;;;9.45;8.05;;;;;;;22.58;54.27;95052.34;5054614;28;20204;-69
2022/09/09 09:48:04;;;;;;;9.15;8.25;;;;;;;22.55;53.92;95048.38;5054460;28;20209;-70
2022/09/09 09:50:32;;;;;;;9.05;8.20;;;;;;;22.51;53.32;95055.28;5054862;28;20212;-70
2022/09/09 09:53:00;;;;;;;9.18;8.32;;;;;;;22.46;53.59;95050.97;5054438;28;20299;-70
2022/09/09 09:55:27;;;;;;;9.13;8.23;;;;;;;22.44;54.00;95046.97;5055038;28;20178;-70
2022/09/09 09:57:54;;;;;;;9.32;8.27;;;;;;;22.44;54.60;95046.97;5055179;28;20198;-70
2022/09/09 10:00:23;;;;;;;10.23;8.30;;;;;;;22.46;54.22;95041.75;5053595;28;20198;-69
2022/09/09 10:02:52;;;;;;;9.32;8.43;;;;;;;22.44;53.90;95047.81;5054718;28;20216;-70
2022/09/09 10:05:21;;;;;;;8.90;8.07;;;;;;;22.43;54.02;95051.81;5054189;28;20186;-70
2022/09/09 10:07:48;;;;;;;10.40;9.15;;;;;;;22.35;54.47;95051.16;5053845;28;20244;-69
2022/09/09 10:10:22;;;;;;;9.23;8.35;;;;;;;22.29;54.33;95055.69;5086185;28;20208;-69
2022/09/09 10:12:57;;;;;;;8.70;7.93;;;;;;;22.26;54.80;95055.75;5054256;28;20535;-69
2022/09/09 10:15:32;;;;;;;8.40;7.60;;;;;;;22.25;55.00;95065.41;5053870;28;20189;-69
2022/09/09 10:18:06;;;;;;;8.02;7.22;;;;;;;22.23;54.88;95065.84;5054227;28;20204;-69
2022/09/09 10:20:38;;;;;;;8.40;7.57;;;;;;;22.24;54.92;95066.63;5054050;28;20193;-69
2022/09/09 10:23:14;;;;;;;9.18;8.32;;;;;;;22.23;55.14;95068.66;5053980;28;20201;-69
2022/09/09 10:25:54;;;;;;;9.10;7.93;;;;;;;22.26;55.00;95064.16;5054037;28;20201;-69
2022/09/09 10:28:34;;;;;;;8.57;7.88;;;;;;;22.23;54.66;95065.84;5053671;28;20544;-69
2022/09/09 10:31:13;;;;;;;8.57;7.72;;;;;;;22.22;54.77;95066.25;5054427;28;20198;-69
2022/09/09 10:33:48;;;;;;;8.35;7.55;;;;;;;22.22;54.90;95063.44;5054095;28;20201;-69
2022/09/09 10:36:18;;;;;;;9.20;8.30;;;;;;;22.20;55.75;95071.53;5053812;28;20201;-69
2022/09/09 10:38:47;;;;;;;9.73;8.68;;;;;;;22.19;55.16;95069.94;5054779;28;20299;-69
2022/09/09 10:41:20;;;;;;;9.48;8.57;;;;;;;22.19;55.42;95073.53;5054065;28;20213;-68
2022/09/09 10:44:18;;;;;;;9.63;8.65;;;;;;;22.19;55.31;95079.16;5054834;28;20235;-69
2022/09/09 10:47:09;;;;;;;8.45;7.70;;;;;;;22.22;54.90;95072.69;5087840;28;20221;-69
2022/09/09 10:49:54;;;;;;;9.32;8.63;;;;;;;22.26;56.55;95075.41;5052929;28;20214;-69
2022/09/09 10:52:24;;;;;;;9.07;8.07;;;;;;;22.27;56.48;95072.19;5053818;28;20190;-69
2022/09/09 10:54:58;;;;;;;11.02;9.45;;;;;;;22.29;56.08;95078.16;5054276;28;20190;-69
2022/09/09 10:57:31;;;;;;;9.57;8.75;;;;;;;22.32;56.45;95079.31;5054087;28;20229;-69
2022/09/09 11:00:01;;;;;;;9.68;8.70;;;;;;;22.32;56.04;95070.88;5053653;28;20196;-68
2022/09/09 11:02:30;;;;;;;10.13;9.23;;;;;;;22.33;56.13;95070.47;5053924;28;20197;-69
2022/09/09 11:05:01;;;;;;;9.80;8.80;;;;;;;22.34;56.19;95072.06;5053470;28;20198;-69
2022/09/09 11:07:33;;;;;;;9.98;9.00;;;;;;;22.35;56.38;95072.84;5053295;28;20233;-69
2022/09/09 11:10:03;;;;;;;10.80;9.50;;;;;;;22.37;56.48;95069.59;5053641;28;20202;-69
2022/09/09 11:12:31;;;;;;;9.95;9.00;;;;;;;22.40;56.58;95072.34;5055124;28;20205;-69
2022/09/09 11:15:03;;;;;;;10.50;9.50;;;;;;;22.44;57.52;95061.84;5057444;28;20206;-69
2022/09/09 11:17:36;;;;;;;10.00;9.10;;;;;;;22.49;57.07;95060.56;5057634;28;20228;-69
2022/09/09 11:20:03;;;;;;;10.18;9.27;;;;;;;22.52;57.96;95045.66;5056904;28;20197;-69
2022/09/09 11:22:32;;;;;;;10.00;9.10;;;;;;;22.58;57.44;95047.50;5057054;28;20197;-69
2022/09/09 11:25:01;;;;;;;10.65;9.50;;;;;;;22.62;57.65;95050.25;5057318;28;20198;-69
2022/09/09 11:27:31;;;;;;;9.63;8.73;;;;;;;22.62;57.34;95041.81;5057723;28;20642;-69
2022/09/09 11:30:24;;;;;;;8.52;7.93;;;;;;;22.62;56.75;95030.56;5057914;28;20182;-69
2022/09/09 11:33:09;;;;;;;12.77;9.20;;;;;;;22.64;57.55;95022.50;5048151;28;20283;-67
2022/09/09 11:35:45;;;;;;;9.50;8.52;;;;;;;22.65;56.99;95017.66;5057169;28;20201;-70
2022/09/09 11:38:22;;;;;;;10.23;9.23;;;;;;;22.69;57.42;95012.75;5057514;28;20178;-69
2022/09/09 11:40:56;;;;;;;9.65;8.68;;;;;;;22.70;57.79;95005.94;5056332;28;20209;-69
2022/09/09 11:43:29;;;;;;;9.57;8.68;;;;;;;22.70;57.40;94995.47;5056814;28;20201;-69